Time,TemperatureF,DewpointF,PressureIn,WindDirection,WindDirectionDegrees,WindSpeedMPH,WindSpeedGustMPH,Humidity,HourlyPrecipIn,Conditions,Clouds,dailyrainin,SoftwareType,DateUTC
2013-09-13 00:03:00,41.0,40.0,-100.00,NE,50,0.0,1.0,97,-99.99,,,-99.99,,2013-09-13 05:03:00,
2013-09-13 00:43:00,39.0,39.0,-100.00,NE,40,0.0,1.0,99,-99.99,,,-99.99,,2013-09-13 05:43:00,
2013-09-13 00:53:00,39.0,39.0,-100.00,NE,40,0.0,1.0,99,-99.99,,,-99.99,,2013-09-13 05:53:00,
2013-09-13 01:02:00,39.0,39.0,-100.00,NE,40,0.0,1.0,99,-99.99,,,-99.99,,2013-09-13 06:02:00,
2013-09-13 01:42:00,38.0,37.0,-100.00,SE,125,0.0,0.0,99,-99.99,,,-99.99,,2013-09-13 06:42:00,
2013-09-13 01:52:00,38.0,37.0,-100.00,SE,125,0.0,0.0,99,-99.99,,,-99.99,,2013-09-13 06:52:00,
2013-09-13 02:02:00,38.0,37.0,-100.00,SE,125,0.0,0.0,99,-99.99,,,-99.99,,2013-09-13 07:02:00,
2013-09-13 02:43:00,36.0,36.0,-100.00,NNW,330,0.0,0.0,99,-99.99,,,-99.99,,2013-09-13 07:43:00,
2013-09-13 02:52:00,36.0,36.0,-100.00,NNW,330,0.0,0.0,99,-99.99,,,-99.99,,2013-09-13 07:52:00,
2013-09-13 03:02:00,36.0,36.0,-100.00,NNW,330,0.0,0.0,99,-99.99,,,-99.99,,2013-09-13 08:02:00,
2013-09-13 03:42:00,35.0,35.0,-100.00,SE,140,0.0,1.0,99,-99.99,,,-99.99,,2013-09-13 08:42:00,
2013-09-13 03:52:00,35.0,35.0,-100.00,SE,140,0.0,1.0,99,-99.99,,,-99.99,,2013-09-13 08:52:00,
2013-09-13 04:02:00,35.0,35.0,-100.00,SE,140,0.0,1.0,99,-99.99,,,-99.99,,2013-09-13 09:02:00,
2013-09-13 04:43:00,34.0,34.0,-100.00,North,5,0.0,0.0,99,-99.99,,,-99.99,,2013-09-13 09:43:00,
2013-09-13 04:54:00,34.0,34.0,-100.00,North,5,0.0,0.0,99,-99.99,,,-99.99,,2013-09-13 09:54:00,
2013-09-13 05:03:00,34.0,34.0,-100.00,North,5,0.0,0.0,99,-99.99,,,-99.99,,2013-09-13 10:03:00,
2013-09-13 05:10:00,33.0,33.0,-100.00,WNW,290,0.0,1.0,99,-99.99,,,-99.99,,2013-09-13 10:10:00,
2013-09-13 05:42:00,33.0,33.0,-100.00,WNW,290,0.0,1.0,99,-99.99,,,-99.99,,2013-09-13 10:42:00,
2013-09-13 05:53:00,33.0,33.0,-100.00,WNW,290,0.0,1.0,99,-99.99,,,-99.99,,2013-09-13 10:53:00,
2013-09-13 06:03:00,33.0,33.0,-100.00,WNW,290,0.0,1.0,99,-99.99,,,-99.99,,2013-09-13 11:03:00,
2013-09-13 06:10:00,32.0,32.0,-100.00,North,10,0.0,0.0,99,-99.99,,,-99.99,,2013-09-13 11:10:00,
2013-09-13 06:42:00,32.0,32.0,-100.00,North,10,0.0,0.0,99,-99.99,,,-99.99,,2013-09-13 11:42:00,
2013-09-13 06:52:00,32.0,32.0,-100.00,North,10,0.0,0.0,99,-99.99,,,-99.99,,2013-09-13 11:52:00,
2013-09-13 07:01:00,32.0,32.0,-100.00,North,10,0.0,0.0,99,-99.99,,,-99.99,,2013-09-13 12:01:00,
2013-09-13 07:10:00,33.0,32.0,-100.00,NNW,330,0.0,0.0,99,-99.99,,,-99.99,,2013-09-13 12:10:00,
2013-09-13 07:42:00,33.0,32.0,-100.00,NNW,330,0.0,0.0,99,-99.99,,,-99.99,,2013-09-13 12:42:00,
2013-09-13 07:52:00,33.0,32.0,-100.00,NNW,330,0.0,0.0,99,-99.99,,,-99.99,,2013-09-13 12:52:00,
2013-09-13 08:02:00,33.0,32.0,-100.00,NNW,330,0.0,0.0,99,-99.99,,,-99.99,,2013-09-13 13:02:00,
2013-09-13 08:42:00,39.0,38.0,-100.00,SSE,165,0.0,0.0,99,-99.99,,,-99.99,,2013-09-13 13:42:00,
2013-09-13 08:52:00,39.0,38.0,-100.00,SSE,165,0.0,0.0,99,-99.99,,,-99.99,,2013-09-13 13:52:00,
2013-09-13 09:02:00,39.0,38.0,-100.00,SSE,165,0.0,0.0,99,-99.99,,,-99.99,,2013-09-13 14:02:00,
2013-09-13 09:42:00,49.0,49.0,-100.00,SE,135,0.0,1.0,99,-99.99,,,-99.99,,2013-09-13 14:42:00,
2013-09-13 09:52:00,49.0,49.0,-100.00,SE,135,0.0,1.0,99,-99.99,,,-99.99,,2013-09-13 14:52:00,
2013-09-13 10:02:00,49.0,49.0,-100.00,SE,135,0.0,1.0,99,-99.99,,,-99.99,,2013-09-13 15:02:00,
2013-09-13 10:43:00,53.0,49.0,-100.00,North,5,2.0,4.0,85,-99.99,,,-99.99,,2013-09-13 15:43:00,
2013-09-13 10:53:00,53.0,49.0,-100.00,North,5,2.0,4.0,85,-99.99,,,-99.99,,2013-09-13 15:53:00,
2013-09-13 11:03:00,53.0,49.0,-100.00,North,5,2.0,4.0,85,-99.99,,,-99.99,,2013-09-13 16:03:00,
2013-09-13 11:11:00,61.0,41.0,-100.00,NE,35,2.0,4.0,48,-99.99,,,-99.99,,2013-09-13 16:11:00,
2013-09-13 11:43:00,61.0,41.0,-100.00,NE,35,2.0,4.0,48,-99.99,,,-99.99,,2013-09-13 16:43:00,
2013-09-13 11:54:00,61.0,41.0,-100.00,NE,35,2.0,4.0,48,-99.99,,,-99.99,,2013-09-13 16:54:00,
2013-09-13 12:04:00,61.0,41.0,-100.00,NE,35,2.0,4.0,48,-99.99,,,-99.99,,2013-09-13 17:04:00,
2013-09-13 12:44:00,61.0,40.0,-100.00,North,0,4.0,7.0,47,-99.99,,,-99.99,,2013-09-13 17:44:00,
2013-09-13 12:53:00,61.0,40.0,-100.00,North,0,4.0,7.0,47,-99.99,,,-99.99,,2013-09-13 17:53:00,
2013-09-13 13:02:00,61.0,40.0,-100.00,North,0,4.0,7.0,47,-99.99,,,-99.99,,2013-09-13 18:02:00,
2013-09-13 13:42:00,64.0,41.0,-100.00,NNE,15,6.0,9.0,43,-99.99,,,-99.99,,2013-09-13 18:42:00,
2013-09-13 13:52:00,64.0,41.0,-100.00,NNE,15,6.0,9.0,43,-99.99,,,-99.99,,2013-09-13 18:52:00,
2013-09-13 14:01:00,64.0,41.0,-100.00,NNE,15,6.0,9.0,43,-99.99,,,-99.99,,2013-09-13 19:01:00,
2013-09-13 14:10:00,62.0,39.0,-100.00,North,0,4.0,7.0,43,-99.99,,,-99.99,,2013-09-13 19:10:00,
2013-09-13 14:43:00,62.0,39.0,-100.00,North,0,4.0,7.0,43,-99.99,,,-99.99,,2013-09-13 19:43:00,
2013-09-13 14:52:00,62.0,39.0,-100.00,North,0,4.0,7.0,43,-99.99,,,-99.99,,2013-09-13 19:52:00,
2013-09-13 15:02:00,62.0,39.0,-100.00,North,0,4.0,7.0,43,-99.99,,,-99.99,,2013-09-13 20:02:00,
2013-09-13 15:43:00,63.0,39.0,-100.00,North,0,4.0,7.0,42,-99.99,,,-99.99,,2013-09-13 20:43:00,
2013-09-13 15:52:00,63.0,39.0,-100.00,North,0,4.0,7.0,42,-99.99,,,-99.99,,2013-09-13 20:52:00,
2013-09-13 16:02:00,63.0,39.0,-100.00,North,0,4.0,7.0,42,-99.99,,,-99.99,,2013-09-13 21:02:00,
2013-09-13 16:44:00,65.0,39.0,-100.00,SE,145,2.0,6.0,38,-99.99,,,-99.99,,2013-09-13 21:44:00,
2013-09-13 16:54:00,65.0,39.0,-100.00,SE,145,2.0,6.0,38,-99.99,,,-99.99,,2013-09-13 21:54:00,
2013-09-13 17:04:00,65.0,39.0,-100.00,SE,145,2.0,6.0,38,-99.99,,,-99.99,,2013-09-13 22:04:00,
2013-09-13 17:43:00,60.0,40.0,-100.00,NNW,345,1.0,3.0,48,-99.99,,,-99.99,,2013-09-13 22:43:00,
2013-09-13 17:53:00,60.0,40.0,-100.00,NNW,345,1.0,3.0,48,-99.99,,,-99.99,,2013-09-13 22:53:00,
2013-09-13 18:03:00,60.0,40.0,-100.00,NNW,345,1.0,3.0,48,-99.99,,,-99.99,,2013-09-13 23:03:00,
2013-09-13 18:10:00,64.0,40.0,-100.00,NNE,25,1.0,4.0,41,-99.99,,,-99.99,,2013-09-13 23:10:00,
2013-09-13 18:43:00,64.0,40.0,-100.00,NNE,25,1.0,4.0,41,-99.99,,,-99.99,,2013-09-13 23:43:00,
2013-09-13 18:53:00,64.0,40.0,-100.00,NNE,25,1.0,4.0,41,-99.99,,,-99.99,,2013-09-13 23:53:00,
2013-09-13 19:01:00,64.0,40.0,-100.00,NNE,25,1.0,4.0,41,-99.99,,,-99.99,,2013-09-14 00:01:00,
2013-09-13 19:42:00,56.0,44.0,-100.00,ESE,105,0.0,1.0,64,-99.99,,,-99.99,,2013-09-14 00:42:00,
2013-09-13 19:52:00,56.0,44.0,-100.00,ESE,105,0.0,1.0,64,-99.99,,,-99.99,,2013-09-14 00:52:00,
2013-09-13 20:02:00,56.0,44.0,-100.00,ESE,105,0.0,1.0,64,-99.99,,,-99.99,,2013-09-14 01:02:00,
2013-09-13 20:42:00,48.0,45.0,-100.00,North,5,1.0,1.0,88,-99.99,,,-99.99,,2013-09-14 01:42:00,
2013-09-13 20:52:00,48.0,45.0,-100.00,North,5,1.0,1.0,88,-99.99,,,-99.99,,2013-09-14 01:52:00,
2013-09-13 21:02:00,48.0,45.0,-100.00,North,5,1.0,1.0,88,-99.99,,,-99.99,,2013-09-14 02:02:00,
2013-09-13 21:10:00,46.0,44.0,-100.00,South,180,0.0,1.0,95,-99.99,,,-99.99,,2013-09-14 02:10:00,
2013-09-13 21:42:00,46.0,44.0,-100.00,South,180,0.0,1.0,95,-99.99,,,-99.99,,2013-09-14 02:42:00,
2013-09-13 21:52:00,46.0,44.0,-100.00,South,180,0.0,1.0,95,-99.99,,,-99.99,,2013-09-14 02:52:00,
2013-09-13 22:02:00,46.0,44.0,-100.00,South,180,0.0,1.0,95,-99.99,,,-99.99,,2013-09-14 03:02:00,
2013-09-13 22:45:00,43.0,42.0,-100.00,ESE,105,0.0,0.0,97,-99.99,,,-99.99,,2013-09-14 03:45:00,
2013-09-13 22:55:00,43.0,42.0,-100.00,ESE,105,0.0,0.0,97,-99.99,,,-99.99,,2013-09-14 03:55:00,
2013-09-13 23:04:00,43.0,42.0,-100.00,ESE,105,0.0,0.0,97,-99.99,,,-99.99,,2013-09-14 04:04:00,
2013-09-13 23:43:00,40.0,40.0,-100.00,NW,325,0.0,0.0,98,-99.99,,,-99.99,,2013-09-14 04:43:00,
2013-09-13 23:54:00,40.0,40.0,-100.00,NW,325,0.0,0.0,98,-99.99,,,-99.99,,2013-09-14 04:54:00,